Aviosuperficie Piancada

IT-0171 · Friuli Venezia Giulia, 意大利

罗盘
风向 的 风向 050° Aviosuperficie Piancada 15/33
风: 4 kt, 2 beaufort

1 kt

4 kt
改变
0 ft 1.000 2.000 3.000 4.000 5.000
Cloud Cloud
FEW 3.000
METAR LIPI 011155Z 05004KT 9999 FEW030 10/03 Q1020

METAR Aviosuperficie Piancada - IT-0171

Aviosuperficie Piancada是,意大利中的小机场。 该机场有一条跑道: 15/33. 该领域的国际民航组织标志是IT-0171.

这份报告是针对2023年2月1日 12:55, 当地时间在Rivolto Air Base进行的。

机场观察

风向为050°,速度为4 kt。

可见度为10 km 或者更多。

有几云在3.000 ft的高度。 没有观察到天花板。

温度为10 °C,阵风为8 °C。 露点为3 °C,相对湿度为62%。 海平面上的气压为1020 hPa (QNH)。

白天

今天,太阳从07:29升起,在17:12降落。 这适用于Aviosuperficie Piancada,世界夏令时可能有所不同。 当地时间与世界标准时间之间的时差为+1 小时。 当前,没有夏令时有效。

公司介绍

我们没有关于这个机场的公司信息。

体会

到Vliegles.nl去找飞行课程,跳伞和其他飞行体验。 浏览页面,了解Aviosuperficie Piancada附近所有可用的活动。 你也可以使用搜索功能来寻找你所在地附近的特定飞行课程、跳伞或其他飞行体验。

跑道

Id 标题 侧风 逆风 侧风 %
15/33 150°-330° 4 kt 98 %

逆风成分最大的方向会被突出显示,并用于横风计算。 这并不一定意味着这个方向在使用。

乌云

3.000 ft FEW 几云

温度 & 天气

温度 10 °C
露点 3 °C
相对湿度 62%
风寒 8 °C
Kp-index 0 (0-9)

白天

日出
07:30
中午
12:21
日落
17:12 (3:55)

小工具

你想在你的网站上有一个关于Aviosuperficie Piancada的当前航空天气(METAR)的小部件吗?

显示HTML代码

我们和第三方通过cookies跟踪您在我们网站上的互联网行为。如果你继续,我们认为你同意我们的饼干政策